createdAt,value
2019-03-15T00:02:30.076Z,10.16
2019-03-15T00:07:36.192Z,16.33
2019-03-15T00:12:42.174Z,8.93
2019-03-15T00:17:48.170Z,11.93
2019-03-15T00:22:57.203Z,10.05
2019-03-15T00:28:03.289Z,18.25
2019-03-15T00:33:09.276Z,9.29
2019-03-15T00:38:15.456Z,9.38
2019-03-15T00:43:21.455Z,8.08
2019-03-15T00:48:27.516Z,8.04
2019-03-15T00:53:33.533Z,10.76
2019-03-15T00:58:39.557Z,9.43
2019-03-15T01:03:45.575Z,9.34
2019-03-15T01:08:51.595Z,7.63
2019-03-15T01:13:57.663Z,7.59
2019-03-15T01:19:03.652Z,15.12
2019-03-15T01:24:09.647Z,7.11
2019-03-15T01:29:15.707Z,7.13
2019-03-15T01:34:21.703Z,8.85
2019-03-15T01:39:27.726Z,9.33
2019-03-15T01:44:33.717Z,14.11
2019-03-15T01:49:39.838Z,7.24
2019-03-15T01:54:45.853Z,6.80
2019-03-15T01:59:51.875Z,12.38
2019-03-15T02:04:57.883Z,7.23
2019-03-15T02:10:03.956Z,7.91
2019-03-15T02:15:09.867Z,11.54
2019-03-15T02:20:15.917Z,6.67
2019-03-15T02:25:21.873Z,11.94
2019-03-15T02:30:27.868Z,6.10
2019-03-15T02:35:33.858Z,10.67
2019-03-15T02:40:39.887Z,5.07
2019-03-15T02:45:45.830Z,5.32
2019-03-15T02:50:51.862Z,5.73
2019-03-15T02:55:57.824Z,5.79
2019-03-15T03:01:03.815Z,5.90
2019-03-15T03:06:09.814Z,4.86
2019-03-15T03:11:15.797Z,6.11
2019-03-15T03:16:21.790Z,6.45
2019-03-15T03:21:27.785Z,6.67
2019-03-15T03:26:33.728Z,4.24
2019-03-15T03:31:39.737Z,5.39
2019-03-15T03:36:45.722Z,6.43
2019-03-15T03:41:51.733Z,6.85
2019-03-15T03:46:57.767Z,5.39
2019-03-15T03:52:03.785Z,10.37
2019-03-15T03:57:10.497Z,4.93
2019-03-15T04:02:15.384Z,5.39
2019-03-15T04:07:21.398Z,9.66
2019-03-15T04:12:27.474Z,4.48
2019-03-15T04:17:33.467Z,5.11
2019-03-15T04:22:39.464Z,6.72
2019-03-15T04:27:45.475Z,15.38
2019-03-15T04:32:51.658Z,5.45
2019-03-15T04:37:57.673Z,5.96
2019-03-15T04:43:09.386Z,4.34
2019-03-15T04:48:05.424Z,5.63
2019-03-15T04:53:11.424Z,5.99
2019-03-15T04:58:17.421Z,6.98
2019-03-15T05:03:23.434Z,6.29
2019-03-15T05:08:29.452Z,5.95
2019-03-15T05:13:35.509Z,6.69
2019-03-15T05:18:41.612Z,6.39
2019-03-15T05:23:47.654Z,8.32
2019-03-15T05:28:53.620Z,8.87
2019-03-15T05:33:59.726Z,7.19
2019-03-15T05:39:05.698Z,9.04
2019-03-15T05:44:11.680Z,14.53
2019-03-15T05:49:17.709Z,19.24
2019-03-15T05:54:23.773Z,8.01
2019-03-15T05:59:29.787Z,8.56
2019-03-15T06:04:35.763Z,8.06
2019-03-15T06:09:41.813Z,8.82
2019-03-15T06:14:47.822Z,10.21
2019-03-15T06:19:53.874Z,9.04
2019-03-15T06:24:59.869Z,8.98
2019-03-15T06:30:05.843Z,8.67
2019-03-15T06:35:11.875Z,9.59
2019-03-15T06:40:17.877Z,7.52
2019-03-15T06:45:23.867Z,9.16
2019-03-15T06:50:29.893Z,19.80
2019-03-15T06:55:35.914Z,8.90
2019-03-15T07:00:41.934Z,8.12
2019-03-15T07:05:47.921Z,7.88
2019-03-15T07:10:53.922Z,10.44
2019-03-15T07:15:59.963Z,9.70
2019-03-15T07:21:05.950Z,9.80
2019-03-15T07:26:11.957Z,8.10
2019-03-15T07:31:17.998Z,9.72
2019-03-15T07:36:24.008Z,10.73
2019-03-15T07:41:30.038Z,8.37
2019-03-15T07:46:36.261Z,8.57
2019-03-15T07:51:42.263Z,8.92
2019-03-15T07:56:48.258Z,8.36
2019-03-15T08:01:54.227Z,7.73
2019-03-15T08:07:00.244Z,8.69
2019-03-15T08:12:06.220Z,8.02
2019-03-15T08:17:12.216Z,6.59
2019-03-15T08:22:18.202Z,12.15
2019-03-15T08:27:24.194Z,11.99
2019-03-15T08:32:30.192Z,6.30
2019-03-15T08:37:36.328Z,6.20
2019-03-15T08:42:42.330Z,11.59
2019-03-15T08:47:48.463Z,6.12
2019-03-15T08:52:54.621Z,4.95
2019-03-15T08:58:13.131Z,4.08
2019-03-15T09:03:06.066Z,4.76
2019-03-15T09:08:12.065Z,3.66
2019-03-15T09:13:18.518Z,1.93
2019-03-15T09:18:24.554Z,2.27
2019-03-15T09:23:30.657Z,1.11
2019-03-15T09:28:36.678Z,1.27
2019-03-15T09:33:42.643Z,1.89
2019-03-15T09:38:48.655Z,5.22
2019-03-15T09:43:54.632Z,1.23
2019-03-15T09:49:00.793Z,2.22
2019-03-15T09:54:06.827Z,3.05
2019-03-15T09:59:12.890Z,2.76
2019-03-15T10:04:18.942Z,0.58
2019-03-15T10:09:24.955Z,0.57
2019-03-15T10:14:31.054Z,0.75
2019-03-15T10:19:37.130Z,0.70
2019-03-15T10:24:43.160Z,0.83
2019-03-15T10:29:49.244Z,0.84
2019-03-15T10:34:55.431Z,2.08
2019-03-15T10:40:01.492Z,1.45
2019-03-15T10:45:07.521Z,2.67
2019-03-15T10:50:13.611Z,1.89
2019-03-15T10:55:20.756Z,1.62
2019-03-15T11:00:25.219Z,1.35
2019-03-15T11:05:31.342Z,2.16
2019-03-15T11:10:37.415Z,1.23
2019-03-15T11:15:43.431Z,1.54
2019-03-15T11:20:49.433Z,0.98
2019-03-15T11:25:55.463Z,1.20
2019-03-15T11:31:01.455Z,1.35
2019-03-15T11:36:07.523Z,0.66
2019-03-15T11:41:13.456Z,2.91
2019-03-15T11:46:19.565Z,1.60
2019-03-15T11:51:25.631Z,1.64
2019-03-15T11:56:31.642Z,1.24
2019-03-15T12:01:37.918Z,2.51
2019-03-15T12:06:43.757Z,1.63
2019-03-15T12:11:49.760Z,2.22
2019-03-15T12:16:55.896Z,2.53
2019-03-15T12:22:06.414Z,2.04
2019-03-15T12:27:07.421Z,1.91
2019-03-15T12:32:13.471Z,2.34
2019-03-15T12:37:19.446Z,3.21
2019-03-15T12:42:25.468Z,3.15
2019-03-15T12:47:31.475Z,3.06
2019-03-15T12:52:47.291Z,3.87
2019-03-15T12:57:43.014Z,2.07
2019-03-15T13:02:49.118Z,5.49
2019-03-15T13:07:55.177Z,2.42
2019-03-15T13:13:01.265Z,3.28
2019-03-15T13:18:07.315Z,3.96
2019-03-15T13:23:13.313Z,4.27
2019-03-15T13:28:19.345Z,2.20
2019-03-15T13:33:25.519Z,2.92
2019-03-15T13:38:31.504Z,2.38
2019-03-15T13:43:37.634Z,2.10
2019-03-15T13:48:43.734Z,2.58
2019-03-15T13:53:49.770Z,2.38
2019-03-15T13:58:57.540Z,3.32
2019-03-15T14:04:01.399Z,3.01
2019-03-15T14:09:07.428Z,4.93
2019-03-15T14:14:13.585Z,2.58
2019-03-15T14:19:19.749Z,2.22
2019-03-15T14:24:25.713Z,3.54
2019-03-15T14:29:31.803Z,5.07
2019-03-15T14:34:37.888Z,2.59
2019-03-15T14:39:44.238Z,3.45
2019-03-15T14:44:50.153Z,3.78
2019-03-15T14:49:56.173Z,2.07
2019-03-15T14:55:02.290Z,5.18
2019-03-15T15:00:10.900Z,2.29
2019-03-15T15:05:14.221Z,1.89
2019-03-15T15:10:20.328Z,2.41
2019-03-15T15:15:26.392Z,1.47
2019-03-15T15:20:32.411Z,1.82
2019-03-15T15:25:38.451Z,1.50
2019-03-15T15:30:44.547Z,2.39
2019-03-15T15:35:51.149Z,1.24
2019-03-15T15:40:57.126Z,2.72
2019-03-15T15:46:03.211Z,1.78
2019-03-15T15:51:09.208Z,2.84
2019-03-15T15:56:15.241Z,2.20
2019-03-15T16:01:21.354Z,1.96
2019-03-15T16:06:27.383Z,3.21
2019-03-15T16:11:33.405Z,1.45
2019-03-15T16:16:39.409Z,1.82
2019-03-15T16:21:45.428Z,1.70
2019-03-15T16:26:51.437Z,2.41
2019-03-15T16:31:57.471Z,1.07
2019-03-15T16:37:03.487Z,1.33
2019-03-15T16:42:09.498Z,1.23
2019-03-15T16:47:15.563Z,1.16
2019-03-15T16:52:21.604Z,0.96
2019-03-15T16:57:27.609Z,1.37
2019-03-15T17:02:33.601Z,0.76
2019-03-15T17:07:39.590Z,0.36
2019-03-15T17:12:45.616Z,0.64
2019-03-15T17:17:51.687Z,0.70
2019-03-15T17:22:57.809Z,0.47
2019-03-15T17:28:03.833Z,1.48
2019-03-15T17:33:09.877Z,1.30
2019-03-15T17:38:15.855Z,1.18
2019-03-15T17:43:21.847Z,2.66
2019-03-15T17:48:27.874Z,3.86
2019-03-15T17:53:34.004Z,2.42
2019-03-15T17:58:40.006Z,1.52
2019-03-15T18:03:47.417Z,1.20
2019-03-15T18:08:51.677Z,1.37
2019-03-15T18:13:57.718Z,0.69
2019-03-15T18:19:03.713Z,0.78
2019-03-15T18:24:09.720Z,1.26
2019-03-15T18:29:25.708Z,1.05
2019-03-15T18:34:21.303Z,1.37
2019-03-15T18:39:27.405Z,1.21
2019-03-15T18:44:33.428Z,1.07
2019-03-15T18:49:39.446Z,0.93
2019-03-15T18:54:45.457Z,0.73
2019-03-15T18:59:51.681Z,2.26
2019-03-15T19:04:57.737Z,0.63
2019-03-15T19:10:03.851Z,0.69
2019-03-15T19:15:09.949Z,1.07
2019-03-15T19:20:16.027Z,2.32
2019-03-15T19:25:21.975Z,3.50
2019-03-15T19:30:27.985Z,1.41
2019-03-15T19:35:33.983Z,4.20
2019-03-15T19:40:39.999Z,1.66
2019-03-15T19:45:45.986Z,1.65
2019-03-15T19:50:51.991Z,1.98
2019-03-15T19:55:58.125Z,3.18
2019-03-15T20:01:04.117Z,1.62
2019-03-15T20:06:10.128Z,1.85
2019-03-15T20:11:16.113Z,2.02
2019-03-15T20:16:22.166Z,2.50
2019-03-15T20:21:28.442Z,2.98
2019-03-15T20:26:34.408Z,4.07
2019-03-15T20:31:40.656Z,3.12
2019-03-15T20:36:46.688Z,1.96
2019-03-15T20:41:52.714Z,2.56
2019-03-15T20:46:58.720Z,2.83
2019-03-15T20:52:04.771Z,7.57
2019-03-15T20:57:10.869Z,3.34
2019-03-15T21:02:16.890Z,7.66
2019-03-15T21:07:22.975Z,4.60
2019-03-15T21:12:29.317Z,4.93
2019-03-15T21:17:35.413Z,10.39
2019-03-15T21:22:41.506Z,7.56
2019-03-15T21:27:54.160Z,7.99
2019-03-15T21:32:53.168Z,7.54
2019-03-15T21:37:59.153Z,6.47
2019-03-15T21:43:05.144Z,9.34
2019-03-15T21:48:11.172Z,15.99
2019-03-15T21:53:17.282Z,8.18
2019-03-15T21:58:23.297Z,7.56
2019-03-15T22:03:29.427Z,7.30
2019-03-15T22:08:35.593Z,8.95
2019-03-15T22:13:41.624Z,8.63
2019-03-15T22:18:47.647Z,9.46
2019-03-15T22:23:53.671Z,8.60
2019-03-15T22:28:59.729Z,9.24
2019-03-15T22:34:05.863Z,19.05
2019-03-15T22:39:11.945Z,12.25
2019-03-15T22:44:17.987Z,13.85
2019-03-15T22:49:24.077Z,9.94
2019-03-15T22:54:30.119Z,10.26
2019-03-15T22:59:36.161Z,8.14
2019-03-15T23:04:42.163Z,11.98
2019-03-15T23:09:48.194Z,21.01
2019-03-15T23:14:54.203Z,11.58
2019-03-15T23:20:00.363Z,24.38
2019-03-15T23:25:06.359Z,13.99
2019-03-15T23:30:12.342Z,26.70
2019-03-15T23:35:18.355Z,29.50
2019-03-15T23:40:24.359Z,14.37
2019-03-15T23:45:30.393Z,15.95
2019-03-15T23:50:36.397Z,14.32
2019-03-15T23:55:42.378Z,15.82
